createdAt,value
2023-03-23T16:04:01.658Z,43.26
2023-03-23T16:14:27.637Z,43.14
2023-03-23T16:24:53.571Z,43.22
2023-03-23T16:35:21.889Z,43.24
2023-03-23T16:45:48.624Z,43.37
2023-03-23T16:56:15.111Z,43.64
2023-03-23T17:06:41.362Z,43.32
2023-03-23T17:17:07.184Z,43.24
2023-03-23T17:27:35.348Z,43.64
2023-03-23T17:38:01.650Z,44.37
2023-03-23T17:48:27.667Z,45.08
2023-03-23T17:58:53.251Z,45.30
2023-03-23T18:09:19.140Z,46.04
2023-03-23T18:19:47.487Z,46.46
2023-03-23T18:30:14.034Z,47.28
2023-03-23T18:40:45.732Z,47.24
2023-03-23T18:51:12.052Z,47.66
2023-03-23T19:01:37.622Z,48.06
2023-03-23T19:12:03.522Z,48.22
2023-03-23T19:22:29.233Z,48.42
2023-03-23T19:32:55.089Z,48.87
2023-03-23T19:43:21.370Z,48.73
2023-03-23T19:53:47.563Z,48.94
2023-03-23T20:04:14.262Z,49.38
2023-03-23T20:14:45.127Z,49.35
2023-03-23T20:25:11.600Z,49.23
2023-03-23T20:35:38.565Z,49.12
2023-03-23T20:46:05.788Z,48.98
2023-03-23T20:56:31.666Z,48.97
2023-03-23T21:06:57.793Z,48.80
2023-03-23T21:17:23.972Z,48.65
2023-03-23T21:27:52.005Z,48.81
2023-03-23T21:38:19.992Z,49.01
2023-03-23T21:48:46.090Z,49.09
2023-03-23T21:59:11.601Z,49.02
2023-03-23T22:09:39.068Z,49.12
2023-03-23T22:20:05.787Z,49.26
2023-03-23T22:30:33.099Z,49.39
2023-03-23T22:41:01.241Z,49.55
2023-03-23T22:51:27.126Z,49.61
2023-03-23T23:01:52.825Z,49.72
2023-03-23T23:12:20.300Z,50.01
2023-03-23T23:22:46.203Z,50.37
2023-03-23T23:33:12.370Z,50.70
2023-03-23T23:43:37.871Z,50.99
2023-03-23T23:54:04.716Z,51.04
